createdAt,value
2018-07-30T00:00:35.521Z,3.40
2018-07-30T00:03:04.370Z,3.33
2018-07-30T00:05:33.872Z,3.40
2018-07-30T00:08:03.534Z,3.63
2018-07-30T00:10:36.682Z,3.70
2018-07-30T00:13:09.680Z,3.73
2018-07-30T00:15:42.088Z,3.77
2018-07-30T00:18:14.489Z,3.27
2018-07-30T00:20:47.493Z,3.60
2018-07-30T00:23:22.219Z,3.60
2018-07-30T00:25:56.483Z,3.10
2018-07-30T00:28:27.792Z,3.13
2018-07-30T00:31:00.372Z,3.50
2018-07-30T00:33:31.485Z,3.83
2018-07-30T00:36:04.813Z,3.57
2018-07-30T00:38:36.367Z,3.20
2018-07-30T00:41:08.484Z,3.27
2018-07-30T00:43:39.629Z,3.57
2018-07-30T00:46:08.894Z,3.40
2018-07-30T00:48:38.236Z,3.30
2018-07-30T00:51:07.635Z,3.33
2018-07-30T00:53:36.728Z,2.90
2018-07-30T00:56:06.160Z,3.13
2018-07-30T00:58:35.437Z,3.50
2018-07-30T01:01:04.607Z,3.07
2018-07-30T01:03:33.612Z,3.50
2018-07-30T01:06:02.770Z,3.53
2018-07-30T01:11:22.443Z,3.27
2018-07-30T01:13:51.477Z,3.27
2018-07-30T01:16:20.514Z,3.37
2018-07-30T01:18:49.467Z,3.43
2018-07-30T01:21:18.663Z,3.80
2018-07-30T01:23:47.668Z,3.13
2018-07-30T01:26:22.016Z,3.60
2018-07-30T01:28:51.370Z,3.20
2018-07-30T01:31:20.549Z,3.47
2018-07-30T01:33:49.388Z,3.20
2018-07-30T01:36:19.279Z,3.73
2018-07-30T01:38:48.744Z,3.40
2018-07-30T01:41:18.192Z,3.23
2018-07-30T01:43:47.112Z,3.40
2018-07-30T01:46:16.106Z,3.57
2018-07-30T01:48:51.874Z,3.47
2018-07-30T01:51:20.857Z,3.80
2018-07-30T01:53:49.793Z,3.43
2018-07-30T01:56:18.758Z,3.83
2018-07-30T01:58:47.918Z,3.57
2018-07-30T02:01:16.936Z,3.77
2018-07-30T02:03:45.898Z,3.83
2018-07-30T02:06:15.063Z,3.47
2018-07-30T02:08:44.027Z,3.80
2018-07-30T02:11:13.015Z,3.63
2018-07-30T02:13:41.971Z,3.53
2018-07-30T02:16:11.069Z,3.67
2018-07-30T02:18:40.259Z,3.90
2018-07-30T02:21:09.268Z,3.37
2018-07-30T02:23:38.213Z,3.97
2018-07-30T02:26:07.113Z,3.50
2018-07-30T02:28:36.080Z,5.03
2018-07-30T02:31:05.193Z,5.60
2018-07-30T02:33:34.097Z,3.57
2018-07-30T02:36:03.117Z,3.97
2018-07-30T02:38:32.060Z,4.80
2018-07-30T02:41:01.437Z,3.67
2018-07-30T02:43:30.616Z,4.03
2018-07-30T02:45:59.734Z,3.47
2018-07-30T02:48:28.777Z,3.90
2018-07-30T02:50:57.740Z,3.80
2018-07-30T02:53:26.704Z,3.77
2018-07-30T02:55:56.048Z,3.30
2018-07-30T02:58:25.635Z,3.60
2018-07-30T03:00:54.914Z,3.73
2018-07-30T03:03:27.289Z,3.53
2018-07-30T03:05:56.768Z,3.47
2018-07-30T03:08:26.046Z,3.47
2018-07-30T03:10:56.002Z,3.53
2018-07-30T03:13:25.191Z,3.57
2018-07-30T03:15:54.688Z,3.47
2018-07-30T03:18:24.757Z,3.77
2018-07-30T03:20:54.336Z,3.93
2018-07-30T03:23:23.712Z,3.70
2018-07-30T03:25:53.128Z,3.47
2018-07-30T03:28:23.061Z,3.40
2018-07-30T03:30:52.744Z,3.90
2018-07-30T03:33:23.821Z,3.73
2018-07-30T03:35:52.844Z,3.43
2018-07-30T03:38:23.004Z,3.33
2018-07-30T03:40:52.398Z,3.70
2018-07-30T03:43:21.957Z,3.73
2018-07-30T03:45:51.488Z,4.00
2018-07-30T03:48:20.834Z,3.83
2018-07-30T03:50:50.446Z,3.87
2018-07-30T03:53:21.240Z,4.03
2018-07-30T03:55:51.397Z,3.77
2018-07-30T03:58:21.108Z,4.00
2018-07-30T04:00:52.527Z,3.40
2018-07-30T04:03:21.732Z,3.80
2018-07-30T04:05:50.754Z,3.97
2018-07-30T04:08:22.658Z,3.57
2018-07-30T04:10:53.779Z,3.63
2018-07-30T04:13:22.714Z,4.00
2018-07-30T04:15:51.887Z,3.60
2018-07-30T04:18:21.892Z,3.90
2018-07-30T04:20:51.017Z,3.67
2018-07-30T04:23:20.568Z,3.63
2018-07-30T04:25:51.237Z,3.90
2018-07-30T04:28:20.774Z,3.73
2018-07-30T04:30:50.521Z,3.67
2018-07-30T04:33:19.684Z,4.00
2018-07-30T04:35:48.643Z,4.17
2018-07-30T04:38:18.792Z,3.93
2018-07-30T04:40:48.274Z,3.50
2018-07-30T04:43:18.332Z,4.13
2018-07-30T04:45:47.369Z,3.90
2018-07-30T04:48:16.298Z,3.83
2018-07-30T04:50:45.368Z,4.47
2018-07-30T04:53:14.288Z,3.63
2018-07-30T04:55:43.343Z,4.30
2018-07-30T04:58:12.273Z,3.90
2018-07-30T05:00:41.273Z,3.70
2018-07-30T05:03:10.289Z,4.30
2018-07-30T05:05:39.313Z,3.87
2018-07-30T05:08:08.314Z,4.43
2018-07-30T05:10:37.490Z,4.00
2018-07-30T05:13:06.669Z,4.07
2018-07-30T05:15:35.564Z,4.20
2018-07-30T05:18:04.879Z,4.10
2018-07-30T05:20:33.943Z,4.17
2018-07-30T05:23:03.031Z,3.50
2018-07-30T05:25:32.070Z,4.00
2018-07-30T05:28:01.019Z,3.83
2018-07-30T05:30:29.954Z,4.07
2018-07-30T05:32:59.190Z,3.67
2018-07-30T05:35:28.191Z,3.57
2018-07-30T05:37:57.402Z,3.83
2018-07-30T05:40:26.450Z,3.70
2018-07-30T05:42:55.595Z,3.50
2018-07-30T05:45:24.657Z,3.60
2018-07-30T05:47:53.669Z,4.37
2018-07-30T05:50:22.606Z,3.70
2018-07-30T05:52:52.169Z,4.07
2018-07-30T05:55:21.217Z,3.50
2018-07-30T05:57:50.379Z,3.77
2018-07-30T06:00:19.369Z,3.97
2018-07-30T06:02:49.074Z,3.70
2018-07-30T06:05:18.259Z,3.63
2018-07-30T06:07:47.317Z,3.77
2018-07-30T06:10:16.494Z,3.70
2018-07-30T06:12:45.607Z,4.20
2018-07-30T06:15:14.817Z,3.73
2018-07-30T06:17:43.968Z,3.80
2018-07-30T06:20:12.923Z,3.93
2018-07-30T06:22:42.117Z,4.13
2018-07-30T06:25:11.372Z,3.80
2018-07-30T06:27:42.106Z,3.93
2018-07-30T06:30:12.187Z,4.23
2018-07-30T06:32:41.758Z,3.87
2018-07-30T06:35:10.867Z,3.70
2018-07-30T06:37:44.558Z,4.07
2018-07-30T06:40:13.638Z,4.27
2018-07-30T06:42:43.043Z,3.63
2018-07-30T06:45:12.161Z,3.80
2018-07-30T06:47:41.612Z,3.70
2018-07-30T06:50:10.792Z,3.63
2018-07-30T06:52:39.928Z,3.97
2018-07-30T06:55:09.591Z,4.13
2018-07-30T06:57:39.014Z,3.97
2018-07-30T07:00:10.279Z,4.30
2018-07-30T07:02:41.181Z,4.17
2018-07-30T07:05:12.418Z,4.47
2018-07-30T07:07:42.996Z,4.17
2018-07-30T07:10:13.332Z,4.30
2018-07-30T07:12:42.843Z,4.00
2018-07-30T07:15:13.772Z,3.67
2018-07-30T07:17:44.073Z,4.00
2018-07-30T07:20:13.293Z,4.23
2018-07-30T07:22:42.525Z,4.30
2018-07-30T07:25:12.085Z,3.90
2018-07-30T07:27:42.177Z,3.73
2018-07-30T07:30:11.237Z,4.10
2018-07-30T07:32:40.446Z,3.90
2018-07-30T07:35:10.945Z,4.13
2018-07-30T07:37:40.244Z,4.23
2018-07-30T07:40:10.113Z,4.17
2018-07-30T07:42:39.399Z,3.70
2018-07-30T07:45:09.676Z,4.30
2018-07-30T07:47:38.985Z,4.63
2018-07-30T07:50:08.497Z,4.70
2018-07-30T07:52:37.802Z,4.00
2018-07-30T07:55:07.732Z,4.33
2018-07-30T07:57:37.733Z,3.97
2018-07-30T08:00:10.282Z,3.97
2018-07-30T08:02:39.869Z,5.00
2018-07-30T08:05:09.599Z,4.10
2018-07-30T08:07:38.756Z,4.08
2018-07-30T08:10:09.052Z,4.22
2018-07-30T08:12:38.401Z,4.17
2018-07-30T08:15:08.756Z,4.30
2018-07-30T08:17:38.419Z,3.87
2018-07-30T08:20:09.153Z,4.20
2018-07-30T08:22:38.866Z,4.22
2018-07-30T08:25:11.794Z,4.22
2018-07-30T08:27:41.307Z,4.40
2018-07-30T08:30:10.717Z,4.00
2018-07-30T08:32:39.992Z,4.78
2018-07-30T08:35:09.293Z,3.77
2018-07-30T08:37:38.737Z,4.05
2018-07-30T08:40:08.723Z,4.50
2018-07-30T08:42:37.800Z,4.70
2018-07-30T08:45:07.457Z,4.37
2018-07-30T08:47:36.701Z,4.60
2018-07-30T08:50:06.351Z,4.55
2018-07-30T08:52:35.991Z,4.15
2018-07-30T08:55:06.157Z,4.70
2018-07-30T08:57:35.384Z,4.17
2018-07-30T09:00:05.756Z,4.30
2018-07-30T09:02:35.353Z,3.80
2018-07-30T09:05:04.627Z,3.77
2018-07-30T09:07:33.798Z,4.37
2018-07-30T09:10:03.145Z,4.30
2018-07-30T09:12:32.463Z,4.65
2018-07-30T09:15:02.066Z,4.65
2018-07-30T09:17:31.353Z,4.33
2018-07-30T09:20:00.788Z,3.87
2018-07-30T09:22:30.468Z,3.92
2018-07-30T09:25:00.311Z,4.17
2018-07-30T09:27:30.069Z,4.22
2018-07-30T09:30:00.413Z,4.42
2018-07-30T09:32:29.802Z,4.65
2018-07-30T09:34:59.506Z,3.37
2018-07-30T09:37:29.175Z,4.12
2018-07-30T09:39:58.875Z,4.17
2018-07-30T09:42:27.521Z,3.75
2018-07-30T09:44:56.675Z,5.00
2018-07-30T09:47:25.996Z,4.05
2018-07-30T09:49:55.090Z,4.30
2018-07-30T09:52:24.325Z,3.65
2018-07-30T09:54:54.128Z,3.80
2018-07-30T09:57:23.944Z,3.50
2018-07-30T09:59:53.615Z,4.47
2018-07-30T10:02:23.314Z,3.83
2018-07-30T10:04:52.853Z,4.00
2018-07-30T10:07:22.722Z,3.77
2018-07-30T10:09:52.202Z,3.22
2018-07-30T10:12:21.893Z,3.65
2018-07-30T10:14:51.387Z,4.97
2018-07-30T10:17:21.121Z,4.95
2018-07-30T10:19:50.866Z,4.25
2018-07-30T10:22:20.588Z,4.28
2018-07-30T10:24:50.094Z,4.33
2018-07-30T10:27:19.932Z,4.65
2018-07-30T10:29:49.341Z,4.25
2018-07-30T10:32:18.871Z,4.42
2018-07-30T10:34:47.956Z,4.50
2018-07-30T10:37:17.329Z,3.92
2018-07-30T10:39:46.549Z,4.95
2018-07-30T10:42:15.973Z,4.22
2018-07-30T10:44:45.101Z,4.28
2018-07-30T10:47:14.269Z,4.50
2018-07-30T10:49:43.635Z,4.70
2018-07-30T10:52:13.023Z,4.00
2018-07-30T10:54:42.428Z,3.98
2018-07-30T10:57:11.812Z,4.35
2018-07-30T10:59:40.897Z,4.08
2018-07-30T11:02:10.017Z,4.28
2018-07-30T11:04:42.035Z,4.40
2018-07-30T11:07:11.768Z,4.40
2018-07-30T11:09:40.826Z,4.90
2018-07-30T11:12:10.253Z,4.08
2018-07-30T11:14:39.509Z,4.30
2018-07-30T11:17:08.727Z,4.15
2018-07-30T11:19:37.770Z,4.53
2018-07-30T11:22:07.305Z,4.97
2018-07-30T11:24:36.640Z,4.45
2018-07-30T11:27:06.192Z,4.22
2018-07-30T11:29:35.577Z,3.90
2018-07-30T11:32:05.298Z,4.53
2018-07-30T11:34:34.683Z,4.12
2018-07-30T11:37:04.317Z,4.72
2018-07-30T11:39:33.931Z,4.90
2018-07-30T11:42:03.273Z,4.30
2018-07-30T11:44:32.644Z,5.08
2018-07-30T11:47:02.073Z,4.53
2018-07-30T11:49:31.365Z,4.92
2018-07-30T11:52:00.802Z,4.92
2018-07-30T11:54:30.487Z,4.83
2018-07-30T11:57:00.268Z,5.03
2018-07-30T11:59:29.691Z,5.10
2018-07-30T12:01:59.345Z,4.92
2018-07-30T12:04:28.868Z,4.65
2018-07-30T12:06:58.400Z,4.47
2018-07-30T12:09:27.963Z,4.95
2018-07-30T12:11:57.396Z,4.95
2018-07-30T12:14:26.619Z,5.05
2018-07-30T12:16:55.814Z,4.95
2018-07-30T12:19:25.229Z,5.12
2018-07-30T12:21:54.706Z,5.00
2018-07-30T12:24:24.265Z,5.42
2018-07-30T12:26:53.931Z,4.60
2018-07-30T12:29:23.208Z,5.10
2018-07-30T12:31:52.652Z,6.12
2018-07-30T12:34:22.873Z,5.12
2018-07-30T12:36:52.171Z,4.95
2018-07-30T12:39:21.347Z,5.55
2018-07-30T12:41:50.741Z,5.58
2018-07-30T12:44:19.866Z,5.17
2018-07-30T12:46:49.034Z,4.55
2018-07-30T12:49:17.910Z,4.72
2018-07-30T12:51:47.309Z,4.72
2018-07-30T12:54:16.436Z,4.80
2018-07-30T12:56:45.773Z,5.17
2018-07-30T12:59:15.278Z,4.58
2018-07-30T13:01:44.748Z,5.08
2018-07-30T13:04:14.080Z,4.67
2018-07-30T13:06:43.258Z,4.83
2018-07-30T13:09:12.573Z,4.92
2018-07-30T13:11:43.019Z,5.40
2018-07-30T13:14:12.560Z,4.87
2018-07-30T13:16:41.922Z,4.92
2018-07-30T13:19:12.984Z,5.17
2018-07-30T13:21:42.768Z,4.87
2018-07-30T13:24:12.275Z,5.30
2018-07-30T13:26:41.867Z,4.55
2018-07-30T13:29:12.066Z,4.95
2018-07-30T13:31:41.414Z,4.50
2018-07-30T13:34:10.704Z,5.40
2018-07-30T13:36:40.281Z,4.95
2018-07-30T13:39:10.807Z,4.50
2018-07-30T13:41:40.116Z,5.10
2018-07-30T13:44:09.844Z,4.90
2018-07-30T13:46:39.472Z,4.78
2018-07-30T13:49:09.094Z,4.97
2018-07-30T13:51:38.694Z,5.05
2018-07-30T13:54:08.135Z,5.37
2018-07-30T13:56:38.314Z,5.42
2018-07-30T13:59:07.997Z,5.20
2018-07-30T14:01:37.524Z,5.35
2018-07-30T14:04:06.825Z,5.47
2018-07-30T14:06:36.472Z,5.60
2018-07-30T14:09:09.300Z,5.00
2018-07-30T14:11:38.767Z,5.42
2018-07-30T14:14:08.743Z,5.42
2018-07-30T14:16:38.415Z,5.20
2018-07-30T14:19:07.697Z,4.95
2018-07-30T14:21:37.092Z,5.12
2018-07-30T14:24:06.644Z,5.65
2018-07-30T14:26:36.855Z,5.42
2018-07-30T14:29:06.287Z,5.22
2018-07-30T14:31:35.562Z,5.50
2018-07-30T14:34:05.018Z,5.20
2018-07-30T14:36:34.261Z,5.22
2018-07-30T14:39:03.786Z,5.22
2018-07-30T14:41:33.029Z,5.17
2018-07-30T14:44:02.434Z,5.15
2018-07-30T14:46:31.749Z,5.62
2018-07-30T14:49:01.068Z,5.75
2018-07-30T14:51:30.459Z,5.50
2018-07-30T14:54:00.633Z,6.30
2018-07-30T14:56:29.756Z,5.65
2018-07-30T14:58:58.970Z,5.50
2018-07-30T15:01:28.254Z,5.78
2018-07-30T15:03:57.502Z,5.47
2018-07-30T15:06:26.632Z,5.35
2018-07-30T15:08:55.871Z,5.05
2018-07-30T15:11:25.214Z,4.75
2018-07-30T15:13:54.276Z,5.47
2018-07-30T15:16:23.510Z,5.12
2018-07-30T15:18:52.898Z,4.87
2018-07-30T15:21:22.305Z,5.80
2018-07-30T15:23:51.445Z,4.97
2018-07-30T15:26:20.770Z,5.53
2018-07-30T15:28:50.306Z,5.70
2018-07-30T15:31:19.800Z,5.87
2018-07-30T15:33:49.137Z,5.33
2018-07-30T15:36:18.255Z,4.95
2018-07-30T15:38:47.488Z,4.78
2018-07-30T15:41:16.778Z,5.15
2018-07-30T15:43:46.100Z,5.08
2018-07-30T15:46:15.275Z,5.50
2018-07-30T15:48:44.492Z,5.10
2018-07-30T15:51:13.730Z,4.97
2018-07-30T15:53:42.993Z,4.80
2018-07-30T15:56:11.969Z,4.85
2018-07-30T15:58:41.358Z,4.95
2018-07-30T16:01:13.606Z,5.30
2018-07-30T16:03:42.945Z,5.22
2018-07-30T16:06:12.096Z,5.40
2018-07-30T16:08:41.863Z,5.28
2018-07-30T16:11:10.834Z,5.45
2018-07-30T16:13:40.074Z,4.47
2018-07-30T16:16:09.108Z,4.62
2018-07-30T16:18:38.234Z,4.90
2018-07-30T16:21:07.484Z,5.10
2018-07-30T16:23:37.497Z,4.58
2018-07-30T16:26:06.532Z,5.17
2018-07-30T16:28:35.570Z,4.55
2018-07-30T16:31:05.541Z,4.58
2018-07-30T16:33:34.794Z,5.17
2018-07-30T16:36:03.874Z,4.75
2018-07-30T16:38:33.053Z,5.42
2018-07-30T16:41:02.012Z,5.00
2018-07-30T16:43:31.292Z,5.53
2018-07-30T16:46:00.292Z,5.17
2018-07-30T16:48:29.244Z,5.42
2018-07-30T16:50:58.309Z,5.67
2018-07-30T16:53:27.443Z,5.17
2018-07-30T16:55:56.403Z,5.37
2018-07-30T16:58:25.363Z,5.33
2018-07-30T17:00:54.356Z,5.53
2018-07-30T17:03:23.295Z,5.28
2018-07-30T17:05:52.288Z,5.00
2018-07-30T17:08:21.255Z,4.67
2018-07-30T17:10:50.528Z,4.33
2018-07-30T17:13:19.725Z,4.60
2018-07-30T17:15:48.965Z,5.05
2018-07-30T17:18:18.086Z,4.42
2018-07-30T17:20:47.270Z,4.50
2018-07-30T17:23:16.248Z,4.85
2018-07-30T17:25:45.817Z,4.40
2018-07-30T17:28:14.971Z,4.35
2018-07-30T17:30:43.949Z,4.60
2018-07-30T17:33:13.058Z,4.40
2018-07-30T17:35:42.565Z,4.55
2018-07-30T17:38:11.629Z,4.12
2018-07-30T17:40:40.816Z,4.78
2018-07-30T17:43:09.863Z,4.50
2018-07-30T17:45:38.848Z,4.40
2018-07-30T17:48:07.786Z,3.85
2018-07-30T17:50:36.988Z,4.53
2018-07-30T17:53:06.426Z,4.62
2018-07-30T17:55:35.399Z,4.60
2018-07-30T17:58:04.396Z,4.67
2018-07-30T18:00:33.375Z,4.70
2018-07-30T18:03:02.405Z,4.70
2018-07-30T18:05:31.541Z,4.50
2018-07-30T18:08:00.639Z,4.80
2018-07-30T18:10:29.717Z,4.17
2018-07-30T18:12:58.832Z,4.70
2018-07-30T18:15:27.960Z,4.08
2018-07-30T18:17:56.918Z,4.65
2018-07-30T18:20:25.965Z,4.53
2018-07-30T18:22:54.915Z,4.53
2018-07-30T18:25:24.089Z,4.53
2018-07-30T18:27:53.017Z,4.35
2018-07-30T18:30:21.993Z,4.62
2018-07-30T18:32:51.087Z,4.75
2018-07-30T18:35:20.239Z,4.08
2018-07-30T18:37:49.218Z,4.08
2018-07-30T18:40:18.200Z,3.85
2018-07-30T18:42:47.385Z,3.83
2018-07-30T18:45:16.482Z,4.22
2018-07-30T18:47:45.502Z,4.00
2018-07-30T18:50:14.658Z,3.90
2018-07-30T18:52:44.509Z,4.12
2018-07-30T18:55:13.459Z,3.95
2018-07-30T18:57:42.557Z,3.92
2018-07-30T19:00:11.844Z,3.95
2018-07-30T19:02:40.879Z,4.15
2018-07-30T19:05:10.016Z,3.40
2018-07-30T19:07:38.928Z,3.90
2018-07-30T19:10:08.318Z,3.92
2018-07-30T19:12:37.292Z,3.90
2018-07-30T19:15:06.373Z,4.08
2018-07-30T19:17:42.081Z,3.65
2018-07-30T19:20:11.176Z,3.52
2018-07-30T19:22:40.279Z,3.90
2018-07-30T19:25:09.259Z,4.00
2018-07-30T19:27:38.428Z,3.50
2018-07-30T19:30:07.605Z,3.80
2018-07-30T19:32:36.588Z,3.70
2018-07-30T19:35:05.792Z,4.03
2018-07-30T19:37:35.053Z,3.67
2018-07-30T19:40:04.373Z,4.03
2018-07-30T19:42:33.390Z,4.10
2018-07-30T19:45:03.158Z,3.60
2018-07-30T19:47:32.142Z,3.72
2018-07-30T19:50:01.272Z,4.10
2018-07-30T19:52:30.315Z,4.22
2018-07-30T19:54:59.253Z,4.20
2018-07-30T19:57:28.241Z,4.03
2018-07-30T19:59:57.221Z,4.40
2018-07-30T20:02:26.370Z,4.50
2018-07-30T20:04:55.307Z,4.55
2018-07-30T20:07:24.281Z,4.62
2018-07-30T20:09:53.444Z,4.67
2018-07-30T20:12:22.527Z,5.15
2018-07-30T20:14:51.501Z,4.67
2018-07-30T20:17:20.519Z,4.12
2018-07-30T20:19:49.592Z,4.87
2018-07-30T20:22:18.636Z,4.53
2018-07-30T20:24:48.094Z,4.25
2018-07-30T20:27:17.057Z,4.10
2018-07-30T20:29:45.980Z,4.37
2018-07-30T20:32:14.962Z,4.60
2018-07-30T20:34:43.918Z,4.67
2018-07-30T20:37:12.901Z,4.30
2018-07-30T20:39:41.837Z,4.37
2018-07-30T20:42:10.859Z,4.17
2018-07-30T20:44:39.791Z,4.90
2018-07-30T20:47:08.980Z,4.30
2018-07-30T20:49:38.104Z,4.70
2018-07-30T20:52:07.273Z,4.72
2018-07-30T20:54:36.294Z,4.33
2018-07-30T20:57:05.703Z,4.27
2018-07-30T20:59:34.625Z,4.90
2018-07-30T21:02:03.626Z,5.20
2018-07-30T21:04:32.773Z,4.73
2018-07-30T21:07:02.424Z,5.07
2018-07-30T21:09:31.338Z,4.77
2018-07-30T21:12:00.424Z,4.70
2018-07-30T21:14:29.537Z,4.97
2018-07-30T21:16:58.592Z,4.80
2018-07-30T21:19:27.531Z,4.97
2018-07-30T21:21:56.884Z,4.33
2018-07-30T21:24:25.876Z,4.57
2018-07-30T21:26:54.967Z,4.33
2018-07-30T21:29:23.921Z,4.70
2018-07-30T21:31:52.968Z,4.70
2018-07-30T21:34:21.894Z,4.90
2018-07-30T21:36:50.921Z,4.60
2018-07-30T21:39:19.893Z,4.63
2018-07-30T21:41:48.992Z,5.33
2018-07-30T21:44:17.964Z,4.27
2018-07-30T21:46:46.921Z,4.90
2018-07-30T21:49:15.452Z,4.23
2018-07-30T21:51:44.547Z,3.90
2018-07-30T21:54:13.565Z,4.53
2018-07-30T21:56:42.642Z,4.60
2018-07-30T21:59:11.848Z,4.20
2018-07-30T22:01:40.959Z,5.00
2018-07-30T22:04:09.939Z,5.40
2018-07-30T22:06:38.869Z,4.93
2018-07-30T22:09:09.114Z,4.90
2018-07-30T22:11:37.791Z,5.43
2018-07-30T22:14:07.006Z,5.40
2018-07-30T22:16:35.985Z,5.47
2018-07-30T22:19:05.013Z,5.23
2018-07-30T22:21:34.043Z,5.00
2018-07-30T22:24:03.001Z,5.73
2018-07-30T22:26:31.968Z,5.87
2018-07-30T22:29:00.965Z,5.47
2018-07-30T22:31:30.201Z,5.63
2018-07-30T22:33:59.158Z,5.43
2018-07-30T22:36:28.120Z,5.50
2018-07-30T22:38:58.031Z,5.60
2018-07-30T22:41:26.971Z,5.57
2018-07-30T22:43:56.079Z,4.90
2018-07-30T22:46:25.018Z,5.73
2018-07-30T22:48:54.106Z,5.23
2018-07-30T22:51:23.057Z,4.97
2018-07-30T22:53:52.239Z,5.20
2018-07-30T22:56:21.855Z,6.03
2018-07-30T22:58:50.874Z,5.87
2018-07-30T23:01:19.901Z,5.43
2018-07-30T23:03:49.067Z,5.30
2018-07-30T23:06:18.006Z,5.47
2018-07-30T23:08:47.036Z,6.20
2018-07-30T23:11:15.927Z,5.57
2018-07-30T23:13:44.989Z,5.30
2018-07-30T23:16:14.011Z,5.47
2018-07-30T23:18:43.018Z,5.40
2018-07-30T23:21:11.978Z,5.40
2018-07-30T23:23:40.917Z,5.60
2018-07-30T23:26:09.887Z,5.40
2018-07-30T23:28:38.968Z,5.93
2018-07-30T23:31:07.931Z,5.13
2018-07-30T23:33:37.251Z,5.10
2018-07-30T23:36:06.172Z,4.90
2018-07-30T23:38:35.103Z,5.33
2018-07-30T23:41:04.045Z,5.30
2018-07-30T23:43:32.989Z,5.50
2018-07-30T23:46:01.928Z,5.07
2018-07-30T23:48:31.061Z,5.03
2018-07-30T23:51:00.116Z,5.00
2018-07-30T23:53:29.051Z,4.90
2018-07-30T23:55:57.999Z,5.60
2018-07-30T23:58:27.330Z,5.23
